메인 페이지
METAR-TAF:

METAR-TAF

공항 :

캘거리, 앨버타, 캐나다

캘거리 국제공항

위도: 51-07N, 경도: 114-01W, 고도: 1077m

현재 날씨관측

예보는 58분 전, 04:00시(UTC)에 발표되었습니다.
10kt
온도 1°C
습도 40%
기압 1002 hPa
시정: 24.1km
고도 21000ft 상공 구름 조금

METAR: CYYC 200400Z 27010KT 15SM FEW210 01/M11 A2960 RMK CI2 SLP072

시각: 21:58 (04:58 UTC)

예보

예보는 2 시간 20분 전, 02:38시(UTC)에 발표되었습니다.
예보 대상 시간: 20일 03시부터 20일 24시까지 (UTC)
12kt, 순간 최대 풍속 22kt
시정: 10km
고도 5000ft 상공 구름 조금
고도 20000ft 상공 구름 보통
전환 중
20일 08시부터 20일 10시까지 (UTC)
서남서5kt
20일 2100시부터 (UTC)
북북서8kt
시정: 10km
고도 10000ft 상공 구름 보통

TAF: CYYC 200238Z 2003/2024 28012G22KT P6SM FEW050 SCT200 BECMG 2008/2010 24005KT FM202100 34008KT P6SM SCT100 RMK NXT FCST BY 200600Z

4,000개 이상의 공항 관측 자료 및 예보 (METAR 및 TAF 보고).

지도상에서 검색 가능한 기상관측소가 노란 점과 빨간 점으로 표시되어 있습니다.

기상관측소 명을 보려면 표시 위로 마우스를 이동하세요.

날씨 관측과 예보를 보려면 클릭하세요.

지도 변경 : 확대하려면 엑스 표시가 있는 녹색 버튼, 축소하려면 빼기 표시가 있는 녹색 버튼, 다음 페이지의 지도를 보려면 녹색 화살표를 클릭하세요.


METAR-TAF: